sensor_id;sensor_type;location;lat;lon;timestamp;P1;durP1;ratioP1;P2;durP2;ratioP2
18653;SDS011;9456;47.824;16.228;2023-04-25T00:02:15;1.70;;;1.40;;
18653;SDS011;9456;47.824;16.228;2023-04-25T00:04:44;2.53;;;1.40;;
18653;SDS011;9456;47.824;16.228;2023-04-25T00:07:14;2.70;;;1.80;;
18653;SDS011;9456;47.824;16.228;2023-04-25T00:09:44;3.87;;;1.83;;
18653;SDS011;9456;47.824;16.228;2023-04-25T00:12:12;1.80;;;1.70;;
18653;SDS011;9456;47.824;16.228;2023-04-25T00:14:41;1.77;;;1.67;;
18653;SDS011;9456;47.824;16.228;2023-04-25T00:17:10;1.70;;;1.60;;
18653;SDS011;9456;47.824;16.228;2023-04-25T00:19:39;2.97;;;1.87;;
18653;SDS011;9456;47.824;16.228;2023-04-25T00:22:08;2.80;;;1.80;;
18653;SDS011;9456;47.824;16.228;2023-04-25T00:24:37;2.00;;;1.90;;
18653;SDS011;9456;47.824;16.228;2023-04-25T00:27:06;2.63;;;1.77;;
18653;SDS011;9456;47.824;16.228;2023-04-25T00:29:35;1.93;;;1.80;;
18653;SDS011;9456;47.824;16.228;2023-04-25T00:32:04;1.90;;;1.80;;
18653;SDS011;9456;47.824;16.228;2023-04-25T00:34:33;3.83;;;1.87;;
18653;SDS011;9456;47.824;16.228;2023-04-25T00:37:02;2.57;;;1.90;;
18653;SDS011;9456;47.824;16.228;2023-04-25T00:39:31;1.80;;;1.70;;
18653;SDS011;9456;47.824;16.228;2023-04-25T00:42:00;1.90;;;1.80;;
18653;SDS011;9456;47.824;16.228;2023-04-25T00:44:30;2.17;;;1.93;;
18653;SDS011;9456;47.824;16.228;2023-04-25T00:46:59;3.10;;;1.93;;
18653;SDS011;9456;47.824;16.228;2023-04-25T00:49:29;1.93;;;1.83;;
18653;SDS011;9456;47.824;16.228;2023-04-25T00:51:58;1.90;;;1.40;;
18653;SDS011;9456;47.824;16.228;2023-04-25T00:54:27;2.30;;;2.10;;
18653;SDS011;9456;47.824;16.228;2023-04-25T00:56:57;2.20;;;1.50;;
18653;SDS011;9456;47.824;16.228;2023-04-25T00:59:26;1.50;;;1.40;;
18653;SDS011;9456;47.824;16.228;2023-04-25T01:01:56;1.80;;;1.70;;
18653;SDS011;9456;47.824;16.228;2023-04-25T01:04:25;3.30;;;1.80;;
18653;SDS011;9456;47.824;16.228;2023-04-25T01:06:54;1.73;;;1.63;;
18653;SDS011;9456;47.824;16.228;2023-04-25T01:09:24;2.20;;;2.00;;
18653;SDS011;9456;47.824;16.228;2023-04-25T01:11:55;1.80;;;1.70;;
18653;SDS011;9456;47.824;16.228;2023-04-25T01:14:24;1.83;;;1.70;;
18653;SDS011;9456;47.824;16.228;2023-04-25T01:16:53;1.80;;;1.70;;
18653;SDS011;9456;47.824;16.228;2023-04-25T01:19:22;1.77;;;1.67;;
18653;SDS011;9456;47.824;16.228;2023-04-25T01:21:52;3.20;;;1.93;;
18653;SDS011;9456;47.824;16.228;2023-04-25T01:24:21;1.93;;;1.73;;
18653;SDS011;9456;47.824;16.228;2023-04-25T01:26:49;2.10;;;1.90;;
18653;SDS011;9456;47.824;16.228;2023-04-25T01:29:20;2.17;;;1.97;;
18653;SDS011;9456;47.824;16.228;2023-04-25T01:31:48;1.87;;;1.77;;
18653;SDS011;9456;47.824;16.228;2023-04-25T01:34:18;2.17;;;2.00;;
18653;SDS011;9456;47.824;16.228;2023-04-25T01:36:47;2.30;;;2.10;;
18653;SDS011;9456;47.824;16.228;2023-04-25T01:39:16;4.17;;;1.80;;
18653;SDS011;9456;47.824;16.228;2023-04-25T01:41:46;2.00;;;1.90;;
18653;SDS011;9456;47.824;16.228;2023-04-25T01:44:15;2.33;;;2.10;;
18653;SDS011;9456;47.824;16.228;2023-04-25T01:46:43;2.07;;;1.83;;
18653;SDS011;9456;47.824;16.228;2023-04-25T01:49:12;2.50;;;1.97;;
18653;SDS011;9456;47.824;16.228;2023-04-25T01:51:42;2.30;;;1.90;;
18653;SDS011;9456;47.824;16.228;2023-04-25T01:54:11;3.40;;;2.40;;
18653;SDS011;9456;47.824;16.228;2023-04-25T01:56:40;2.80;;;2.00;;
18653;SDS011;9456;47.824;16.228;2023-04-25T01:59:09;2.33;;;2.20;;
18653;SDS011;9456;47.824;16.228;2023-04-25T02:01:38;10.67;;;2.30;;
18653;SDS011;9456;47.824;16.228;2023-04-25T02:04:07;1.73;;;1.63;;
18653;SDS011;9456;47.824;16.228;2023-04-25T02:06:36;3.03;;;2.40;;
18653;SDS011;9456;47.824;16.228;2023-04-25T02:09:05;3.40;;;2.27;;
18653;SDS011;9456;47.824;16.228;2023-04-25T02:11:34;3.83;;;2.10;;
18653;SDS011;9456;47.824;16.228;2023-04-25T02:14:03;2.77;;;2.57;;
18653;SDS011;9456;47.824;16.228;2023-04-25T02:16:32;2.80;;;2.20;;
18653;SDS011;9456;47.824;16.228;2023-04-25T02:19:01;2.83;;;2.57;;
18653;SDS011;9456;47.824;16.228;2023-04-25T02:21:30;2.57;;;2.37;;
18653;SDS011;9456;47.824;16.228;2023-04-25T02:23:59;2.70;;;2.50;;
18653;SDS011;9456;47.824;16.228;2023-04-25T02:26:29;4.30;;;2.70;;
18653;SDS011;9456;47.824;16.228;2023-04-25T02:28:58;2.57;;;2.30;;
18653;SDS011;9456;47.824;16.228;2023-04-25T02:31:27;2.43;;;2.23;;
18653;SDS011;9456;47.824;16.228;2023-04-25T02:33:56;3.20;;;2.30;;
18653;SDS011;9456;47.824;16.228;2023-04-25T02:36:25;3.50;;;2.33;;
18653;SDS011;9456;47.824;16.228;2023-04-25T02:38:54;2.57;;;2.20;;
18653;SDS011;9456;47.824;16.228;2023-04-25T02:41:24;3.00;;;2.10;;
18653;SDS011;9456;47.824;16.228;2023-04-25T02:43:53;2.30;;;2.10;;
18653;SDS011;9456;47.824;16.228;2023-04-25T02:46:22;2.47;;;2.10;;
18653;SDS011;9456;47.824;16.228;2023-04-25T02:48:52;2.87;;;2.13;;
18653;SDS011;9456;47.824;16.228;2023-04-25T02:51:21;2.73;;;2.40;;
18653;SDS011;9456;47.824;16.228;2023-04-25T02:53:50;2.37;;;2.07;;
18653;SDS011;9456;47.824;16.228;2023-04-25T02:56:19;2.27;;;1.93;;
18653;SDS011;9456;47.824;16.228;2023-04-25T02:58:48;3.00;;;2.53;;
18653;SDS011;9456;47.824;16.228;2023-04-25T03:01:17;3.67;;;2.30;;
18653;SDS011;9456;47.824;16.228;2023-04-25T03:03:48;2.23;;;2.03;;
18653;SDS011;9456;47.824;16.228;2023-04-25T03:06:17;3.13;;;2.10;;
18653;SDS011;9456;47.824;16.228;2023-04-25T03:08:46;2.50;;;2.30;;
18653;SDS011;9456;47.824;16.228;2023-04-25T03:11:15;4.10;;;2.40;;
18653;SDS011;9456;47.824;16.228;2023-04-25T03:13:44;4.43;;;2.70;;
18653;SDS011;9456;47.824;16.228;2023-04-25T03:16:13;3.40;;;2.50;;
18653;SDS011;9456;47.824;16.228;2023-04-25T03:18:42;2.43;;;2.23;;
18653;SDS011;9456;47.824;16.228;2023-04-25T03:21:11;7.20;;;2.40;;
18653;SDS011;9456;47.824;16.228;2023-04-25T03:23:40;4.10;;;2.50;;
18653;SDS011;9456;47.824;16.228;2023-04-25T03:26:09;3.63;;;2.77;;
18653;SDS011;9456;47.824;16.228;2023-04-25T03:28:38;2.53;;;2.33;;
18653;SDS011;9456;47.824;16.228;2023-04-25T03:31:07;2.67;;;2.47;;
18653;SDS011;9456;47.824;16.228;2023-04-25T03:33:36;3.70;;;2.67;;
18653;SDS011;9456;47.824;16.228;2023-04-25T03:36:06;5.70;;;2.47;;
18653;SDS011;9456;47.824;16.228;2023-04-25T03:38:36;3.87;;;2.47;;
18653;SDS011;9456;47.824;16.228;2023-04-25T03:41:05;3.30;;;2.20;;
18653;SDS011;9456;47.824;16.228;2023-04-25T03:43:34;1.70;;;1.60;;
18653;SDS011;9456;47.824;16.228;2023-04-25T03:46:04;4.13;;;2.30;;
18653;SDS011;9456;47.824;16.228;2023-04-25T03:48:33;2.97;;;2.70;;
18653;SDS011;9456;47.824;16.228;2023-04-25T03:51:02;4.57;;;2.07;;
18653;SDS011;9456;47.824;16.228;2023-04-25T03:53:31;3.77;;;2.53;;
18653;SDS011;9456;47.824;16.228;2023-04-25T03:56:00;2.73;;;2.20;;
18653;SDS011;9456;47.824;16.228;2023-04-25T03:58:29;2.50;;;2.30;;
18653;SDS011;9456;47.824;16.228;2023-04-25T04:00:58;2.50;;;2.30;;
18653;SDS011;9456;47.824;16.228;2023-04-25T04:03:27;2.60;;;2.40;;
18653;SDS011;9456;47.824;16.228;2023-04-25T04:05:57;3.53;;;2.50;;
18653;SDS011;9456;47.824;16.228;2023-04-25T04:08:26;2.43;;;2.20;;
18653;SDS011;9456;47.824;16.228;2023-04-25T04:10:55;3.87;;;2.27;;
18653;SDS011;9456;47.824;16.228;2023-04-25T04:13:25;3.27;;;2.10;;
18653;SDS011;9456;47.824;16.228;2023-04-25T04:15:54;3.17;;;2.30;;
18653;SDS011;9456;47.824;16.228;2023-04-25T04:18:23;2.40;;;2.20;;
18653;SDS011;9456;47.824;16.228;2023-04-25T04:20:52;4.17;;;2.60;;
18653;SDS011;9456;47.824;16.228;2023-04-25T04:23:21;3.97;;;2.33;;
18653;SDS011;9456;47.824;16.228;2023-04-25T04:25:50;3.07;;;2.63;;
18653;SDS011;9456;47.824;16.228;2023-04-25T04:28:19;2.93;;;2.73;;
18653;SDS011;9456;47.824;16.228;2023-04-25T04:30:48;2.67;;;2.47;;
18653;SDS011;9456;47.824;16.228;2023-04-25T04:33:18;5.80;;;2.63;;
18653;SDS011;9456;47.824;16.228;2023-04-25T04:35:47;4.70;;;2.53;;
18653;SDS011;9456;47.824;16.228;2023-04-25T04:38:16;3.53;;;2.43;;
18653;SDS011;9456;47.824;16.228;2023-04-25T04:40:45;4.53;;;2.70;;
18653;SDS011;9456;47.824;16.228;2023-04-25T04:43:15;2.60;;;2.40;;
18653;SDS011;9456;47.824;16.228;2023-04-25T04:45:44;2.93;;;2.63;;
18653;SDS011;9456;47.824;16.228;2023-04-25T04:48:13;2.87;;;2.67;;
18653;SDS011;9456;47.824;16.228;2023-04-25T04:50:43;2.97;;;2.67;;
18653;SDS011;9456;47.824;16.228;2023-04-25T04:53:12;2.43;;;2.33;;
18653;SDS011;9456;47.824;16.228;2023-04-25T04:55:41;5.13;;;2.77;;
18653;SDS011;9456;47.824;16.228;2023-04-25T04:58:10;4.73;;;2.83;;
18653;SDS011;9456;47.824;16.228;2023-04-25T05:00:39;3.57;;;2.70;;
18653;SDS011;9456;47.824;16.228;2023-04-25T05:03:08;2.70;;;2.50;;
18653;SDS011;9456;47.824;16.228;2023-04-25T05:05:37;4.50;;;2.70;;
18653;SDS011;9456;47.824;16.228;2023-04-25T05:08:07;3.97;;;2.50;;
18653;SDS011;9456;47.824;16.228;2023-04-25T05:10:36;4.13;;;2.67;;
18653;SDS011;9456;47.824;16.228;2023-04-25T05:13:05;5.63;;;2.80;;
18653;SDS011;9456;47.824;16.228;2023-04-25T05:15:34;5.17;;;2.60;;
18653;SDS011;9456;47.824;16.228;2023-04-25T05:18:03;5.07;;;2.80;;
18653;SDS011;9456;47.824;16.228;2023-04-25T05:20:33;5.23;;;2.77;;
18653;SDS011;9456;47.824;16.228;2023-04-25T05:23:02;3.30;;;2.67;;
18653;SDS011;9456;47.824;16.228;2023-04-25T05:25:37;11.07;;;2.87;;
18653;SDS011;9456;47.824;16.228;2023-04-25T05:28:06;3.10;;;2.60;;
18653;SDS011;9456;47.824;16.228;2023-04-25T05:30:35;5.20;;;2.20;;
18653;SDS011;9456;47.824;16.228;2023-04-25T05:33:04;3.20;;;2.03;;
18653;SDS011;9456;47.824;16.228;2023-04-25T05:35:33;2.57;;;2.33;;
18653;SDS011;9456;47.824;16.228;2023-04-25T05:38:02;4.27;;;2.07;;
18653;SDS011;9456;47.824;16.228;2023-04-25T05:40:31;2.23;;;2.03;;
18653;SDS011;9456;47.824;16.228;2023-04-25T05:43:00;2.87;;;2.30;;
18653;SDS011;9456;47.824;16.228;2023-04-25T05:45:29;2.87;;;2.00;;
18653;SDS011;9456;47.824;16.228;2023-04-25T05:47:58;2.43;;;1.77;;
18653;SDS011;9456;47.824;16.228;2023-04-25T05:50:27;1.93;;;1.83;;
18653;SDS011;9456;47.824;16.228;2023-04-25T05:52:56;2.93;;;1.50;;
18653;SDS011;9456;47.824;16.228;2023-04-25T05:55:25;1.83;;;1.73;;
18653;SDS011;9456;47.824;16.228;2023-04-25T05:57:54;2.07;;;1.87;;
18653;SDS011;9456;47.824;16.228;2023-04-25T06:00:23;4.27;;;3.27;;
18653;SDS011;9456;47.824;16.228;2023-04-25T06:02:52;2.10;;;1.87;;
18653;SDS011;9456;47.824;16.228;2023-04-25T06:05:21;2.90;;;1.80;;
18653;SDS011;9456;47.824;16.228;2023-04-25T06:07:50;3.23;;;2.13;;
18653;SDS011;9456;47.824;16.228;2023-04-25T06:10:20;2.47;;;2.27;;
18653;SDS011;9456;47.824;16.228;2023-04-25T06:12:49;2.80;;;1.77;;
18653;SDS011;9456;47.824;16.228;2023-04-25T06:15:18;3.17;;;2.13;;
18653;SDS011;9456;47.824;16.228;2023-04-25T06:17:47;4.13;;;1.77;;
18653;SDS011;9456;47.824;16.228;2023-04-25T06:20:16;2.60;;;1.67;;
18653;SDS011;9456;47.824;16.228;2023-04-25T06:22:45;9.03;;;5.40;;
18653;SDS011;9456;47.824;16.228;2023-04-25T06:25:14;2.53;;;1.70;;
18653;SDS011;9456;47.824;16.228;2023-04-25T06:27:43;5.30;;;4.80;;
18653;SDS011;9456;47.824;16.228;2023-04-25T06:30:12;2.53;;;2.30;;
18653;SDS011;9456;47.824;16.228;2023-04-25T06:32:41;3.27;;;2.77;;
18653;SDS011;9456;47.824;16.228;2023-04-25T06:35:10;1.60;;;1.50;;
18653;SDS011;9456;47.824;16.228;2023-04-25T06:37:39;1.50;;;1.40;;
18653;SDS011;9456;47.824;16.228;2023-04-25T06:40:09;1.80;;;1.43;;
18653;SDS011;9456;47.824;16.228;2023-04-25T06:42:38;2.50;;;1.40;;
18653;SDS011;9456;47.824;16.228;2023-04-25T06:45:08;3.13;;;1.50;;
18653;SDS011;9456;47.824;16.228;2023-04-25T06:47:37;3.63;;;1.77;;
18653;SDS011;9456;47.824;16.228;2023-04-25T06:50:07;2.20;;;1.55;;
18653;SDS011;9456;47.824;16.228;2023-04-25T06:52:36;2.60;;;1.67;;
18653;SDS011;9456;47.824;16.228;2023-04-25T06:55:06;1.50;;;1.30;;
18653;SDS011;9456;47.824;16.228;2023-04-25T06:57:36;1.77;;;1.53;;
18653;SDS011;9456;47.824;16.228;2023-04-25T07:00:06;1.90;;;1.67;;
18653;SDS011;9456;47.824;16.228;2023-04-25T07:02:36;1.80;;;1.70;;
18653;SDS011;9456;47.824;16.228;2023-04-25T07:05:06;4.60;;;1.43;;
18653;SDS011;9456;47.824;16.228;2023-04-25T07:07:35;2.03;;;1.40;;
18653;SDS011;9456;47.824;16.228;2023-04-25T07:10:05;4.23;;;1.60;;
18653;SDS011;9456;47.824;16.228;2023-04-25T07:12:34;1.30;;;1.20;;
18653;SDS011;9456;47.824;16.228;2023-04-25T07:15:04;2.50;;;1.70;;
18653;SDS011;9456;47.824;16.228;2023-04-25T07:17:35;2.73;;;1.40;;
18653;SDS011;9456;47.824;16.228;2023-04-25T07:20:05;1.47;;;1.27;;
18653;SDS011;9456;47.824;16.228;2023-04-25T07:22:35;2.00;;;1.37;;
18653;SDS011;9456;47.824;16.228;2023-04-25T07:25:05;2.27;;;1.47;;
18653;SDS011;9456;47.824;16.228;2023-04-25T07:27:34;1.87;;;1.73;;
18653;SDS011;9456;47.824;16.228;2023-04-25T07:30:04;2.23;;;1.83;;
18653;SDS011;9456;47.824;16.228;2023-04-25T07:32:34;1.87;;;1.53;;
18653;SDS011;9456;47.824;16.228;2023-04-25T07:35:06;1.50;;;1.40;;
18653;SDS011;9456;47.824;16.228;2023-04-25T07:37:35;1.60;;;1.40;;
18653;SDS011;9456;47.824;16.228;2023-04-25T07:40:06;2.07;;;1.40;;
18653;SDS011;9456;47.824;16.228;2023-04-25T07:42:36;2.77;;;1.60;;
18653;SDS011;9456;47.824;16.228;2023-04-25T07:45:07;2.73;;;1.30;;
18653;SDS011;9456;47.824;16.228;2023-04-25T07:47:36;1.40;;;1.30;;
18653;SDS011;9456;47.824;16.228;2023-04-25T07:50:07;1.13;;;1.10;;
18653;SDS011;9456;47.824;16.228;2023-04-25T07:52:37;2.00;;;1.30;;
18653;SDS011;9456;47.824;16.228;2023-04-25T07:55:07;6.00;;;1.70;;
18653;SDS011;9456;47.824;16.228;2023-04-25T07:57:36;1.37;;;1.27;;
18653;SDS011;9456;47.824;16.228;2023-04-25T08:00:06;1.43;;;1.37;;
18653;SDS011;9456;47.824;16.228;2023-04-25T08:02:37;1.83;;;1.40;;
18653;SDS011;9456;47.824;16.228;2023-04-25T08:05:06;1.77;;;1.37;;
18653;SDS011;9456;47.824;16.228;2023-04-25T08:07:35;4.60;;;1.77;;
18653;SDS011;9456;47.824;16.228;2023-04-25T08:10:05;1.60;;;1.50;;
18653;SDS011;9456;47.824;16.228;2023-04-25T08:12:35;1.47;;;1.27;;
18653;SDS011;9456;47.824;16.228;2023-04-25T08:15:05;2.27;;;1.50;;
18653;SDS011;9456;47.824;16.228;2023-04-25T08:17:35;1.77;;;1.30;;
18653;SDS011;9456;47.824;16.228;2023-04-25T08:20:04;2.80;;;1.80;;
18653;SDS011;9456;47.824;16.228;2023-04-25T08:22:34;1.70;;;1.60;;
18653;SDS011;9456;47.824;16.228;2023-04-25T08:25:04;1.40;;;1.30;;
18653;SDS011;9456;47.824;16.228;2023-04-25T08:27:33;1.70;;;1.23;;
18653;SDS011;9456;47.824;16.228;2023-04-25T08:30:03;2.30;;;1.20;;
18653;SDS011;9456;47.824;16.228;2023-04-25T08:32:33;1.67;;;1.57;;
18653;SDS011;9456;47.824;16.228;2023-04-25T08:35:02;3.30;;;1.57;;
18653;SDS011;9456;47.824;16.228;2023-04-25T08:37:31;2.67;;;1.63;;
18653;SDS011;9456;47.824;16.228;2023-04-25T08:40:00;2.77;;;1.50;;
18653;SDS011;9456;47.824;16.228;2023-04-25T08:42:31;1.83;;;1.40;;
18653;SDS011;9456;47.824;16.228;2023-04-25T08:45:00;1.50;;;1.27;;
18653;SDS011;9456;47.824;16.228;2023-04-25T08:47:30;2.37;;;1.43;;
18653;SDS011;9456;47.824;16.228;2023-04-25T08:49:59;1.80;;;1.30;;
18653;SDS011;9456;47.824;16.228;2023-04-25T08:52:28;2.67;;;1.80;;
18653;SDS011;9456;47.824;16.228;2023-04-25T08:54:59;3.00;;;1.37;;
18653;SDS011;9456;47.824;16.228;2023-04-25T08:57:28;2.60;;;1.50;;
18653;SDS011;9456;47.824;16.228;2023-04-25T08:59:57;2.10;;;1.43;;
18653;SDS011;9456;47.824;16.228;2023-04-25T09:02:26;2.03;;;1.30;;
18653;SDS011;9456;47.824;16.228;2023-04-25T09:04:55;1.40;;;1.10;;
18653;SDS011;9456;47.824;16.228;2023-04-25T09:07:24;1.83;;;1.20;;
18653;SDS011;9456;47.824;16.228;2023-04-25T09:09:53;2.03;;;1.33;;
18653;SDS011;9456;47.824;16.228;2023-04-25T09:12:22;1.90;;;1.33;;
18653;SDS011;9456;47.824;16.228;2023-04-25T09:15:04;2.10;;;1.30;;
18653;SDS011;9456;47.824;16.228;2023-04-25T09:17:34;1.60;;;1.43;;
18653;SDS011;9456;47.824;16.228;2023-04-25T09:20:08;1.50;;;1.37;;
18653;SDS011;9456;47.824;16.228;2023-04-25T09:22:37;2.00;;;1.17;;
18653;SDS011;9456;47.824;16.228;2023-04-25T09:25:09;1.40;;;1.30;;
18653;SDS011;9456;47.824;16.228;2023-04-25T09:27:38;2.87;;;1.30;;
18653;SDS011;9456;47.824;16.228;2023-04-25T09:30:18;1.20;;;0.90;;
18653;SDS011;9456;47.824;16.228;2023-04-25T09:32:48;2.20;;;1.53;;
18653;SDS011;9456;47.824;16.228;2023-04-25T09:35:24;1.77;;;1.40;;
18653;SDS011;9456;47.824;16.228;2023-04-25T09:37:53;2.03;;;1.43;;
18653;SDS011;9456;47.824;16.228;2023-04-25T09:40:22;4.33;;;1.43;;
18653;SDS011;9456;47.824;16.228;2023-04-25T09:42:51;3.07;;;1.20;;
18653;SDS011;9456;47.824;16.228;2023-04-25T09:45:20;1.60;;;1.10;;
18653;SDS011;9456;47.824;16.228;2023-04-25T09:47:49;1.67;;;1.30;;
18653;SDS011;9456;47.824;16.228;2023-04-25T09:50:18;1.30;;;1.20;;
18653;SDS011;9456;47.824;16.228;2023-04-25T09:52:47;1.37;;;0.97;;
18653;SDS011;9456;47.824;16.228;2023-04-25T09:55:19;1.20;;;1.10;;
18653;SDS011;9456;47.824;16.228;2023-04-25T09:57:48;1.23;;;1.10;;
18653;SDS011;9456;47.824;16.228;2023-04-25T10:00:18;1.33;;;1.10;;
18653;SDS011;9456;47.824;16.228;2023-04-25T10:02:47;1.50;;;1.40;;
18653;SDS011;9456;47.824;16.228;2023-04-25T10:05:16;1.87;;;1.43;;
18653;SDS011;9456;47.824;16.228;2023-04-25T10:07:45;1.50;;;1.40;;
18653;SDS011;9456;47.824;16.228;2023-04-25T10:10:14;3.33;;;1.27;;
18653;SDS011;9456;47.824;16.228;2023-04-25T10:12:43;2.17;;;1.30;;
18653;SDS011;9456;47.824;16.228;2023-04-25T10:15:12;2.27;;;1.40;;
18653;SDS011;9456;47.824;16.228;2023-04-25T10:17:41;1.30;;;1.03;;
18653;SDS011;9456;47.824;16.228;2023-04-25T10:20:11;2.03;;;1.50;;
18653;SDS011;9456;47.824;16.228;2023-04-25T10:22:41;1.23;;;1.13;;
18653;SDS011;9456;47.824;16.228;2023-04-25T10:25:09;1.57;;;1.00;;
18653;SDS011;9456;47.824;16.228;2023-04-25T10:27:40;1.57;;;1.00;;
18653;SDS011;9456;47.824;16.228;2023-04-25T10:30:10;1.17;;;0.93;;
18653;SDS011;9456;47.824;16.228;2023-04-25T10:32:39;2.60;;;1.10;;
18653;SDS011;9456;47.824;16.228;2023-04-25T10:35:12;3.60;;;1.30;;
18653;SDS011;9456;47.824;16.228;2023-04-25T10:37:58;0.97;;;0.90;;
18653;SDS011;9456;47.824;16.228;2023-04-25T10:40:27;1.70;;;1.23;;
18653;SDS011;9456;47.824;16.228;2023-04-25T10:42:57;0.90;;;0.90;;
18653;SDS011;9456;47.824;16.228;2023-04-25T10:45:28;1.20;;;1.10;;
18653;SDS011;9456;47.824;16.228;2023-04-25T10:47:58;1.70;;;1.23;;
18653;SDS011;9456;47.824;16.228;2023-04-25T10:50:32;1.60;;;1.20;;
18653;SDS011;9456;47.824;16.228;2023-04-25T10:53:15;3.37;;;1.17;;
18653;SDS011;9456;47.824;16.228;2023-04-25T10:55:50;6.67;;;1.60;;
18653;SDS011;9456;47.824;16.228;2023-04-25T10:58:22;3.97;;;1.20;;
18653;SDS011;9456;47.824;16.228;2023-04-25T11:00:51;1.10;;;1.10;;
18653;SDS011;9456;47.824;16.228;2023-04-25T11:03:20;2.50;;;1.10;;
18653;SDS011;9456;47.824;16.228;2023-04-25T11:05:50;4.90;;;1.07;;
18653;SDS011;9456;47.824;16.228;2023-04-25T11:08:21;4.23;;;1.47;;
18653;SDS011;9456;47.824;16.228;2023-04-25T11:10:48;1.53;;;1.20;;
18653;SDS011;9456;47.824;16.228;2023-04-25T11:13:17;1.27;;;1.20;;
18653;SDS011;9456;47.824;16.228;2023-04-25T11:15:51;3.60;;;1.37;;
18653;SDS011;9456;47.824;16.228;2023-04-25T11:18:20;3.43;;;1.20;;
18653;SDS011;9456;47.824;16.228;2023-04-25T11:20:50;1.30;;;1.20;;
18653;SDS011;9456;47.824;16.228;2023-04-25T11:23:20;4.80;;;1.50;;
18653;SDS011;9456;47.824;16.228;2023-04-25T11:25:49;1.60;;;1.37;;
18653;SDS011;9456;47.824;16.228;2023-04-25T11:28:21;4.27;;;1.93;;
18653;SDS011;9456;47.824;16.228;2023-04-25T11:30:50;2.23;;;1.77;;
18653;SDS011;9456;47.824;16.228;2023-04-25T11:33:22;2.97;;;1.70;;
18653;SDS011;9456;47.824;16.228;2023-04-25T11:35:51;3.53;;;1.37;;
18653;SDS011;9456;47.824;16.228;2023-04-25T11:38:20;1.20;;;1.10;;
18653;SDS011;9456;47.824;16.228;2023-04-25T11:40:53;1.27;;;1.17;;
18653;SDS011;9456;47.824;16.228;2023-04-25T11:43:22;1.80;;;1.27;;
18653;SDS011;9456;47.824;16.228;2023-04-25T11:45:51;4.07;;;1.77;;
18653;SDS011;9456;47.824;16.228;2023-04-25T11:48:20;2.83;;;1.33;;
18653;SDS011;9456;47.824;16.228;2023-04-25T11:50:49;2.00;;;1.67;;
18653;SDS011;9456;47.824;16.228;2023-04-25T11:53:18;1.20;;;1.10;;
18653;SDS011;9456;47.824;16.228;2023-04-25T11:55:47;1.10;;;1.00;;
18653;SDS011;9456;47.824;16.228;2023-04-25T11:58:16;3.93;;;1.17;;
18653;SDS011;9456;47.824;16.228;2023-04-25T12:00:45;1.40;;;1.10;;
18653;SDS011;9456;47.824;16.228;2023-04-25T12:03:14;2.20;;;1.40;;
18653;SDS011;9456;47.824;16.228;2023-04-25T12:05:44;2.87;;;1.30;;
18653;SDS011;9456;47.824;16.228;2023-04-25T12:08:13;2.23;;;1.70;;
18653;SDS011;9456;47.824;16.228;2023-04-25T12:10:43;3.27;;;1.43;;
18653;SDS011;9456;47.824;16.228;2023-04-25T12:13:18;1.30;;;1.20;;
18653;SDS011;9456;47.824;16.228;2023-04-25T12:15:48;1.80;;;1.60;;
18653;SDS011;9456;47.824;16.228;2023-04-25T12:18:19;4.73;;;1.63;;
18653;SDS011;9456;47.824;16.228;2023-04-25T12:20:48;5.00;;;1.30;;
18653;SDS011;9456;47.824;16.228;2023-04-25T12:23:17;3.83;;;1.77;;
18653;SDS011;9456;47.824;16.228;2023-04-25T12:25:48;4.43;;;1.60;;
18653;SDS011;9456;47.824;16.228;2023-04-25T12:28:18;4.10;;;1.17;;
18653;SDS011;9456;47.824;16.228;2023-04-25T12:30:53;9.27;;;1.30;;
18653;SDS011;9456;47.824;16.228;2023-04-25T12:33:23;2.03;;;1.27;;
18653;SDS011;9456;47.824;16.228;2023-04-25T12:35:52;1.27;;;1.17;;
18653;SDS011;9456;47.824;16.228;2023-04-25T12:38:24;3.53;;;1.30;;
18653;SDS011;9456;47.824;16.228;2023-04-25T12:40:53;6.90;;;2.43;;
18653;SDS011;9456;47.824;16.228;2023-04-25T12:43:22;3.97;;;1.90;;
18653;SDS011;9456;47.824;16.228;2023-04-25T12:45:51;1.63;;;1.30;;
18653;SDS011;9456;47.824;16.228;2023-04-25T12:48:20;1.97;;;1.63;;
18653;SDS011;9456;47.824;16.228;2023-04-25T12:50:49;2.13;;;1.67;;
18653;SDS011;9456;47.824;16.228;2023-04-25T12:53:19;2.90;;;1.40;;
18653;SDS011;9456;47.824;16.228;2023-04-25T12:55:48;1.60;;;1.50;;
18653;SDS011;9456;47.824;16.228;2023-04-25T12:58:17;2.37;;;1.43;;
18653;SDS011;9456;47.824;16.228;2023-04-25T13:00:46;1.20;;;1.03;;
18653;SDS011;9456;47.824;16.228;2023-04-25T13:03:15;2.70;;;1.30;;
18653;SDS011;9456;47.824;16.228;2023-04-25T13:05:44;2.47;;;1.60;;
18653;SDS011;9456;47.824;16.228;2023-04-25T13:08:13;1.30;;;1.27;;
18653;SDS011;9456;47.824;16.228;2023-04-25T13:10:42;3.03;;;1.50;;
18653;SDS011;9456;47.824;16.228;2023-04-25T13:13:11;4.67;;;1.77;;
18653;SDS011;9456;47.824;16.228;2023-04-25T13:15:40;1.80;;;1.60;;
18653;SDS011;9456;47.824;16.228;2023-04-25T13:18:09;3.57;;;1.30;;
18653;SDS011;9456;47.824;16.228;2023-04-25T13:20:38;3.70;;;1.77;;
18653;SDS011;9456;47.824;16.228;2023-04-25T13:23:07;1.73;;;1.50;;
18653;SDS011;9456;47.824;16.228;2023-04-25T13:25:36;2.30;;;1.30;;
18653;SDS011;9456;47.824;16.228;2023-04-25T13:28:05;1.77;;;1.40;;
18653;SDS011;9456;47.824;16.228;2023-04-25T13:30:35;2.47;;;1.43;;
18653;SDS011;9456;47.824;16.228;2023-04-25T13:33:04;2.83;;;1.60;;
18653;SDS011;9456;47.824;16.228;2023-04-25T13:35:33;4.87;;;1.70;;
18653;SDS011;9456;47.824;16.228;2023-04-25T13:38:02;3.53;;;1.60;;
18653;SDS011;9456;47.824;16.228;2023-04-25T13:40:31;1.73;;;1.60;;
18653;SDS011;9456;47.824;16.228;2023-04-25T13:43:00;2.07;;;1.60;;
18653;SDS011;9456;47.824;16.228;2023-04-25T13:45:29;1.50;;;1.40;;
18653;SDS011;9456;47.824;16.228;2023-04-25T13:47:58;1.27;;;1.27;;
18653;SDS011;9456;47.824;16.228;2023-04-25T13:50:27;3.10;;;1.80;;
18653;SDS011;9456;47.824;16.228;2023-04-25T13:52:56;3.13;;;1.33;;
18653;SDS011;9456;47.824;16.228;2023-04-25T13:55:25;4.03;;;1.43;;
18653;SDS011;9456;47.824;16.228;2023-04-25T13:57:55;1.70;;;1.30;;
18653;SDS011;9456;47.824;16.228;2023-04-25T14:00:24;2.30;;;1.80;;
18653;SDS011;9456;47.824;16.228;2023-04-25T14:02:53;4.60;;;1.67;;
18653;SDS011;9456;47.824;16.228;2023-04-25T14:05:22;3.60;;;1.70;;
18653;SDS011;9456;47.824;16.228;2023-04-25T14:07:51;5.47;;;1.70;;
18653;SDS011;9456;47.824;16.228;2023-04-25T14:10:20;2.17;;;1.50;;
18653;SDS011;9456;47.824;16.228;2023-04-25T14:12:49;1.60;;;1.50;;
18653;SDS011;9456;47.824;16.228;2023-04-25T14:15:18;1.53;;;1.40;;
18653;SDS011;9456;47.824;16.228;2023-04-25T14:17:47;3.60;;;1.67;;
18653;SDS011;9456;47.824;16.228;2023-04-25T14:20:16;2.43;;;1.73;;
18653;SDS011;9456;47.824;16.228;2023-04-25T14:22:46;1.93;;;1.43;;
18653;SDS011;9456;47.824;16.228;2023-04-25T14:25:15;1.33;;;1.23;;
18653;SDS011;9456;47.824;16.228;2023-04-25T14:27:44;1.07;;;1.07;;
18653;SDS011;9456;47.824;16.228;2023-04-25T14:30:14;1.43;;;1.30;;
18653;SDS011;9456;47.824;16.228;2023-04-25T14:32:43;0.90;;;0.83;;
18653;SDS011;9456;47.824;16.228;2023-04-25T14:35:12;1.07;;;0.83;;
18653;SDS011;9456;47.824;16.228;2023-04-25T14:37:41;6.67;;;1.73;;
18653;SDS011;9456;47.824;16.228;2023-04-25T14:40:11;1.40;;;1.30;;
18653;SDS011;9456;47.824;16.228;2023-04-25T14:42:41;0.90;;;0.90;;
18653;SDS011;9456;47.824;16.228;2023-04-25T14:45:10;2.93;;;1.10;;
18653;SDS011;9456;47.824;16.228;2023-04-25T14:47:39;1.57;;;1.23;;
18653;SDS011;9456;47.824;16.228;2023-04-25T14:50:09;1.43;;;1.30;;
18653;SDS011;9456;47.824;16.228;2023-04-25T14:52:38;1.33;;;1.10;;
18653;SDS011;9456;47.824;16.228;2023-04-25T14:55:08;1.53;;;1.17;;
18653;SDS011;9456;47.824;16.228;2023-04-25T14:57:37;2.20;;;1.10;;
18653;SDS011;9456;47.824;16.228;2023-04-25T15:00:07;1.50;;;1.20;;
18653;SDS011;9456;47.824;16.228;2023-04-25T15:02:40;1.73;;;1.00;;